sensor_id;sensor_type;location;lat;lon;timestamp;pressure;altitude;pressure_sealevel;temperature;humidity
74594;BME280;63097;51.872;4.460;2023-03-15T00:00:55;101363.00;;;3.30;92.67
74594;BME280;63097;51.872;4.460;2023-03-15T00:03:21;101361.50;;;3.27;93.42
74594;BME280;63097;51.872;4.460;2023-03-15T00:05:48;101352.78;;;3.24;92.99
74594;BME280;63097;51.872;4.460;2023-03-15T00:08:14;101353.44;;;3.26;92.95
74594;BME280;63097;51.872;4.460;2023-03-15T00:10:44;101350.25;;;3.22;93.01
74594;BME280;63097;51.872;4.460;2023-03-15T00:13:11;101351.69;;;3.39;92.05
74594;BME280;63097;51.872;4.460;2023-03-15T00:15:44;101365.91;;;3.43;91.39
74594;BME280;63097;51.872;4.460;2023-03-15T00:18:10;101366.06;;;3.56;90.16
74594;BME280;63097;51.872;4.460;2023-03-15T00:20:36;101372.97;;;3.52;90.86
74594;BME280;63097;51.872;4.460;2023-03-15T00:23:01;101373.84;;;3.52;90.86
74594;BME280;63097;51.872;4.460;2023-03-15T00:25:27;101385.53;;;3.40;91.82
74594;BME280;63097;51.872;4.460;2023-03-15T00:27:52;101385.47;;;3.33;92.11
74594;BME280;63097;51.872;4.460;2023-03-15T00:30:17;101394.22;;;3.22;92.53
74594;BME280;63097;51.872;4.460;2023-03-15T00:32:43;101393.09;;;3.17;92.31
74594;BME280;63097;51.872;4.460;2023-03-15T00:35:10;101394.25;;;2.93;93.84
74594;BME280;63097;51.872;4.460;2023-03-15T00:37:35;101403.25;;;2.87;93.94
74594;BME280;63097;51.872;4.460;2023-03-15T00:40:00;101397.56;;;2.88;93.97
74594;BME280;63097;51.872;4.460;2023-03-15T00:42:27;101395.09;;;2.79;94.44
74594;BME280;63097;51.872;4.460;2023-03-15T00:44:53;101401.91;;;2.68;94.26
74594;BME280;63097;51.872;4.460;2023-03-15T00:47:18;101401.16;;;2.60;94.89
74594;BME280;63097;51.872;4.460;2023-03-15T00:49:43;101408.81;;;2.64;94.71
74594;BME280;63097;51.872;4.460;2023-03-15T00:52:09;101408.59;;;2.51;95.10
74594;BME280;63097;51.872;4.460;2023-03-15T00:54:34;101414.94;;;2.52;95.06
74594;BME280;63097;51.872;4.460;2023-03-15T00:57:00;101416.38;;;2.62;94.60
74594;BME280;63097;51.872;4.460;2023-03-15T00:59:30;101423.41;;;2.79;94.21
74594;BME280;63097;51.872;4.460;2023-03-15T01:01:56;101423.50;;;2.71;94.25
74594;BME280;63097;51.872;4.460;2023-03-15T01:04:21;101434.22;;;2.81;93.07
74594;BME280;63097;51.872;4.460;2023-03-15T01:06:47;101436.94;;;2.66;93.34
74594;BME280;63097;51.872;4.460;2023-03-15T01:09:12;101441.22;;;2.69;93.29
74594;BME280;63097;51.872;4.460;2023-03-15T01:11:37;101440.91;;;2.64;93.47
74594;BME280;63097;51.872;4.460;2023-03-15T01:14:02;101431.69;;;2.42;93.78
74594;BME280;63097;51.872;4.460;2023-03-15T01:16:28;101444.88;;;2.47;94.00
74594;BME280;63097;51.872;4.460;2023-03-15T01:18:54;101440.25;;;2.25;94.83
74594;BME280;63097;51.872;4.460;2023-03-15T01:21:21;101442.47;;;2.07;95.29
74594;BME280;63097;51.872;4.460;2023-03-15T01:23:47;101448.72;;;1.92;95.75
74594;BME280;63097;51.872;4.460;2023-03-15T01:26:14;101443.63;;;1.89;95.97
74594;BME280;63097;51.872;4.460;2023-03-15T01:28:39;101450.28;;;2.18;96.00
74594;BME280;63097;51.872;4.460;2023-03-15T01:31:05;101459.59;;;2.09;95.60
74594;BME280;63097;51.872;4.460;2023-03-15T01:33:31;101454.94;;;2.09;96.04
74594;BME280;63097;51.872;4.460;2023-03-15T01:36:01;101464.41;;;1.84;96.04
74594;BME280;63097;51.872;4.460;2023-03-15T01:38:27;101461.75;;;1.68;96.40
74594;BME280;63097;51.872;4.460;2023-03-15T01:40:53;101466.94;;;1.63;96.97
74594;BME280;63097;51.872;4.460;2023-03-15T01:43:20;101470.16;;;1.66;97.21
74594;BME280;63097;51.872;4.460;2023-03-15T01:48:36;101478.19;;;1.98;97.00
74594;BME280;63097;51.872;4.460;2023-03-15T01:51:07;101479.16;;;2.05;96.49
74594;BME280;63097;51.872;4.460;2023-03-15T01:53:34;101482.31;;;1.94;96.60
74594;BME280;63097;51.872;4.460;2023-03-15T01:56:00;101477.25;;;1.83;96.68
74594;BME280;63097;51.872;4.460;2023-03-15T01:58:27;101483.16;;;2.03;96.45
74594;BME280;63097;51.872;4.460;2023-03-15T02:00:53;101489.34;;;1.97;96.50
74594;BME280;63097;51.872;4.460;2023-03-15T02:03:28;101489.00;;;2.23;96.14
74594;BME280;63097;51.872;4.460;2023-03-15T02:06:01;101490.56;;;2.17;95.96
74594;BME280;63097;51.872;4.460;2023-03-15T02:08:31;101491.38;;;2.03;96.66
74594;BME280;63097;51.872;4.460;2023-03-15T02:10:59;101494.28;;;2.24;96.48
74594;BME280;63097;51.872;4.460;2023-03-15T02:13:28;101491.63;;;2.16;96.53
74594;BME280;63097;51.872;4.460;2023-03-15T02:15:54;101491.53;;;2.24;96.45
74594;BME280;63097;51.872;4.460;2023-03-15T02:18:21;101500.25;;;2.28;96.14
74594;BME280;63097;51.872;4.460;2023-03-15T02:20:55;101497.03;;;2.24;95.94
74594;BME280;63097;51.872;4.460;2023-03-15T02:23:23;101499.72;;;2.32;95.86
74594;BME280;63097;51.872;4.460;2023-03-15T02:28:18;101510.88;;;2.08;96.23
74594;BME280;63097;51.872;4.460;2023-03-15T02:30:45;101496.88;;;2.03;96.67
74594;BME280;63097;51.872;4.460;2023-03-15T02:33:22;101509.72;;;2.02;97.03
74594;BME280;63097;51.872;4.460;2023-03-15T02:35:49;101509.72;;;2.02;97.26
74594;BME280;63097;51.872;4.460;2023-03-15T02:38:14;101504.91;;;2.04;97.68
74594;BME280;63097;51.872;4.460;2023-03-15T02:40:40;101517.94;;;2.02;97.58
74594;BME280;63097;51.872;4.460;2023-03-15T02:43:13;101500.16;;;1.90;97.82
74594;BME280;63097;51.872;4.460;2023-03-15T02:45:39;101523.03;;;2.14;97.56
74594;BME280;63097;51.872;4.460;2023-03-15T02:48:05;101523.41;;;2.11;97.62
74594;BME280;63097;51.872;4.460;2023-03-15T02:50:31;101539.75;;;1.96;97.54
74594;BME280;63097;51.872;4.460;2023-03-15T02:52:56;101547.56;;;2.07;97.25
74594;BME280;63097;51.872;4.460;2023-03-15T02:55:22;101542.19;;;1.91;97.71
74594;BME280;63097;51.872;4.460;2023-03-15T02:57:47;101561.56;;;1.89;97.57
74594;BME280;63097;51.872;4.460;2023-03-15T03:00:13;101569.19;;;1.71;97.22
74594;BME280;63097;51.872;4.460;2023-03-15T03:02:41;101562.41;;;1.59;97.51
74594;BME280;63097;51.872;4.460;2023-03-15T03:05:07;101566.53;;;1.55;97.57
74594;BME280;63097;51.872;4.460;2023-03-15T03:07:32;101575.94;;;1.61;97.84
74594;BME280;63097;51.872;4.460;2023-03-15T03:09:58;101582.66;;;1.89;97.02
74594;BME280;63097;51.872;4.460;2023-03-15T03:12:24;101571.09;;;1.71;96.72
74594;BME280;63097;51.872;4.460;2023-03-15T03:14:49;101577.44;;;1.71;96.78
74594;BME280;63097;51.872;4.460;2023-03-15T03:17:14;101578.31;;;1.64;96.73
74594;BME280;63097;51.872;4.460;2023-03-15T03:19:40;101583.69;;;1.49;96.64
74594;BME280;63097;51.872;4.460;2023-03-15T03:22:05;101583.69;;;1.49;96.96
74594;BME280;63097;51.872;4.460;2023-03-15T03:24:30;101580.63;;;1.36;96.96
74594;BME280;63097;51.872;4.460;2023-03-15T03:26:56;101596.19;;;1.44;96.82
74594;BME280;63097;51.872;4.460;2023-03-15T03:29:21;101589.03;;;1.43;96.51
74594;BME280;63097;51.872;4.460;2023-03-15T03:31:46;101581.69;;;1.35;96.39
74594;BME280;63097;51.872;4.460;2023-03-15T03:34:12;101607.47;;;1.57;96.16
74594;BME280;63097;51.872;4.460;2023-03-15T03:36:37;101599.25;;;1.57;95.82
74594;BME280;63097;51.872;4.460;2023-03-15T03:39:02;101603.38;;;1.45;95.95
74594;BME280;63097;51.872;4.460;2023-03-15T03:41:28;101613.56;;;1.28;96.06
74594;BME280;63097;51.872;4.460;2023-03-15T03:43:53;101621.09;;;1.18;96.02
74594;BME280;63097;51.872;4.460;2023-03-15T03:46:18;101630.50;;;1.16;96.63
74594;BME280;63097;51.872;4.460;2023-03-15T03:48:44;101622.50;;;1.06;96.55
74594;BME280;63097;51.872;4.460;2023-03-15T03:51:09;101617.00;;;1.06;96.79
74594;BME280;63097;51.872;4.460;2023-03-15T03:53:34;101629.16;;;1.03;97.21
74594;BME280;63097;51.872;4.460;2023-03-15T03:55:59;101648.81;;;1.23;97.20
74594;BME280;63097;51.872;4.460;2023-03-15T03:58:25;101651.53;;;1.47;97.47
74594;BME280;63097;51.872;4.460;2023-03-15T04:00:51;101652.22;;;2.04;96.45
74594;BME280;63097;51.872;4.460;2023-03-15T04:03:16;101652.56;;;2.01;95.41
74594;BME280;63097;51.872;4.460;2023-03-15T04:05:41;101654.16;;;1.95;94.90
74594;BME280;63097;51.872;4.460;2023-03-15T04:08:07;101655.81;;;2.04;94.42
74594;BME280;63097;51.872;4.460;2023-03-15T04:10:32;101663.38;;;2.02;94.56
74594;BME280;63097;51.872;4.460;2023-03-15T04:12:57;101662.00;;;2.07;94.80
74594;BME280;63097;51.872;4.460;2023-03-15T04:15:23;101664.91;;;2.05;94.66
74594;BME280;63097;51.872;4.460;2023-03-15T04:17:49;101665.44;;;2.00;95.00
74594;BME280;63097;51.872;4.460;2023-03-15T04:20:15;101667.97;;;2.10;94.76
74594;BME280;63097;51.872;4.460;2023-03-15T04:22:40;101674.47;;;2.09;95.16
74594;BME280;63097;51.872;4.460;2023-03-15T04:25:06;101667.59;;;2.13;94.98
74594;BME280;63097;51.872;4.460;2023-03-15T04:27:31;101668.88;;;2.33;94.58
74594;BME280;63097;51.872;4.460;2023-03-15T04:29:57;101668.41;;;2.22;94.42
74594;BME280;63097;51.872;4.460;2023-03-15T04:32:22;101671.16;;;2.22;94.15
74594;BME280;63097;51.872;4.460;2023-03-15T04:34:47;101675.44;;;2.24;93.93
74594;BME280;63097;51.872;4.460;2023-03-15T04:37:13;101677.00;;;2.27;94.36
74594;BME280;63097;51.872;4.460;2023-03-15T04:39:38;101672.31;;;2.27;93.93
74594;BME280;63097;51.872;4.460;2023-03-15T04:42:03;101693.09;;;2.30;94.00
74594;BME280;63097;51.872;4.460;2023-03-15T04:44:29;101690.31;;;2.38;93.57
74594;BME280;63097;51.872;4.460;2023-03-15T04:46:54;101695.56;;;2.47;92.59
74594;BME280;63097;51.872;4.460;2023-03-15T04:49:20;101708.00;;;2.35;93.13
74594;BME280;63097;51.872;4.460;2023-03-15T04:51:46;101709.94;;;2.27;94.42
74594;BME280;63097;51.872;4.460;2023-03-15T04:54:11;101712.66;;;2.27;94.89
74594;BME280;63097;51.872;4.460;2023-03-15T04:56:36;101727.78;;;2.23;95.40
74594;BME280;63097;51.872;4.460;2023-03-15T04:59:02;101735.59;;;2.42;95.22
74594;BME280;63097;51.872;4.460;2023-03-15T05:01:29;101739.00;;;2.44;94.75
74594;BME280;63097;51.872;4.460;2023-03-15T05:03:56;101740.91;;;2.43;93.24
74594;BME280;63097;51.872;4.460;2023-03-15T05:06:21;101742.94;;;2.11;92.23
74594;BME280;63097;51.872;4.460;2023-03-15T05:08:47;101749.00;;;1.66;93.55
74594;BME280;63097;51.872;4.460;2023-03-15T05:11:12;101748.88;;;1.59;94.89
74594;BME280;63097;51.872;4.460;2023-03-15T05:13:37;101757.91;;;1.60;94.97
74594;BME280;63097;51.872;4.460;2023-03-15T05:16:03;101761.88;;;1.49;95.80
74594;BME280;63097;51.872;4.460;2023-03-15T05:18:28;101754.50;;;1.42;96.42
74594;BME280;63097;51.872;4.460;2023-03-15T05:20:53;101747.66;;;1.38;97.19
74594;BME280;63097;51.872;4.460;2023-03-15T05:23:19;101748.50;;;1.38;97.38
74594;BME280;63097;51.872;4.460;2023-03-15T05:25:49;101749.38;;;1.39;97.74
74594;BME280;63097;51.872;4.460;2023-03-15T05:28:14;101744.22;;;1.44;97.91
74594;BME280;63097;51.872;4.460;2023-03-15T05:30:40;101748.88;;;1.59;97.29
74594;BME280;63097;51.872;4.460;2023-03-15T05:33:05;101763.59;;;1.42;96.90
74594;BME280;63097;51.872;4.460;2023-03-15T05:35:30;101765.44;;;1.18;97.25
74594;BME280;63097;51.872;4.460;2023-03-15T05:37:56;101775.00;;;0.97;97.35
74594;BME280;63097;51.872;4.460;2023-03-15T05:40:21;101774.81;;;0.75;97.59
74594;BME280;63097;51.872;4.460;2023-03-15T05:42:46;101772.84;;;0.59;97.72
74594;BME280;63097;51.872;4.460;2023-03-15T05:45:12;101770.25;;;0.50;97.72
74594;BME280;63097;51.872;4.460;2023-03-15T05:47:37;101773.84;;;0.50;98.59
74594;BME280;63097;51.872;4.460;2023-03-15T05:50:03;101783.25;;;0.48;99.08
74594;BME280;63097;51.872;4.460;2023-03-15T05:52:28;101786.38;;;0.61;99.07
74594;BME280;63097;51.872;4.460;2023-03-15T05:54:53;101783.31;;;0.64;99.21
74594;BME280;63097;51.872;4.460;2023-03-15T05:57:19;101792.03;;;0.59;99.39
74594;BME280;63097;51.872;4.460;2023-03-15T05:59:44;101792.16;;;0.50;99.09
74594;BME280;63097;51.872;4.460;2023-03-15T06:02:09;101791.09;;;0.43;99.51
74594;BME280;63097;51.872;4.460;2023-03-15T06:04:34;101805.47;;;0.45;99.23
74594;BME280;63097;51.872;4.460;2023-03-15T06:07:00;101811.66;;;0.47;99.73
74594;BME280;63097;51.872;4.460;2023-03-15T06:09:25;101827.25;;;0.54;99.73
74594;BME280;63097;51.872;4.460;2023-03-15T06:11:50;101828.06;;;0.47;99.86
74594;BME280;63097;51.872;4.460;2023-03-15T06:14:16;101827.38;;;0.45;100.00
74594;BME280;63097;51.872;4.460;2023-03-15T06:16:41;101833.44;;;0.64;100.00
74594;BME280;63097;51.872;4.460;2023-03-15T06:19:06;101844.03;;;0.51;100.00
74594;BME280;63097;51.872;4.460;2023-03-15T06:21:32;101840.53;;;0.41;100.00
74594;BME280;63097;51.872;4.460;2023-03-15T06:23:57;101843.72;;;0.37;100.00
74594;BME280;63097;51.872;4.460;2023-03-15T06:26:22;101848.31;;;0.28;100.00
74594;BME280;63097;51.872;4.460;2023-03-15T06:28:48;101853.34;;;0.41;100.00
74594;BME280;63097;51.872;4.460;2023-03-15T06:31:13;101863.13;;;0.43;100.00
74594;BME280;63097;51.872;4.460;2023-03-15T06:33:39;101856.94;;;0.41;100.00
74594;BME280;63097;51.872;4.460;2023-03-15T06:36:05;101862.31;;;0.51;100.00
74594;BME280;63097;51.872;4.460;2023-03-15T06:38:30;101864.00;;;0.52;100.00
74594;BME280;63097;51.872;4.460;2023-03-15T06:40:57;101864.72;;;0.54;100.00
74594;BME280;63097;51.872;4.460;2023-03-15T06:43:22;101873.16;;;0.60;100.00
74594;BME280;63097;51.872;4.460;2023-03-15T06:45:47;101875.53;;;0.63;100.00
74594;BME280;63097;51.872;4.460;2023-03-15T06:48:13;101886.22;;;0.74;100.00
74594;BME280;63097;51.872;4.460;2023-03-15T06:50:39;101877.66;;;0.77;100.00
74594;BME280;63097;51.872;4.460;2023-03-15T06:53:05;101894.31;;;0.92;100.00
74594;BME280;63097;51.872;4.460;2023-03-15T06:55:30;101900.84;;;0.99;100.00
74594;BME280;63097;51.872;4.460;2023-03-15T06:57:55;101899.72;;;1.10;100.00
74594;BME280;63097;51.872;4.460;2023-03-15T07:00:21;101895.97;;;1.19;100.00
74594;BME280;63097;51.872;4.460;2023-03-15T07:02:46;101904.59;;;1.32;100.00
74594;BME280;63097;51.872;4.460;2023-03-15T07:05:12;101915.22;;;1.43;100.00
74594;BME280;63097;51.872;4.460;2023-03-15T07:07:37;101920.06;;;1.57;100.00
74594;BME280;63097;51.872;4.460;2023-03-15T07:10:02;101916.63;;;1.71;100.00
74594;BME280;63097;51.872;4.460;2023-03-15T07:12:28;101919.06;;;1.82;100.00
74594;BME280;63097;51.872;4.460;2023-03-15T07:14:53;101920.44;;;2.02;100.00
74594;BME280;63097;51.872;4.460;2023-03-15T07:17:18;101929.34;;;2.20;100.00
74594;BME280;63097;51.872;4.460;2023-03-15T07:19:44;101914.06;;;2.42;100.00
74594;BME280;63097;51.872;4.460;2023-03-15T07:22:09;101922.97;;;2.52;100.00
74594;BME280;63097;51.872;4.460;2023-03-15T07:24:34;101924.84;;;2.59;100.00
74594;BME280;63097;51.872;4.460;2023-03-15T07:26:59;101931.47;;;2.89;100.00
74594;BME280;63097;51.872;4.460;2023-03-15T07:29:25;101939.84;;;2.95;99.09
74594;BME280;63097;51.872;4.460;2023-03-15T07:31:50;101935.72;;;2.91;97.97
74594;BME280;63097;51.872;4.460;2023-03-15T07:34:16;101937.91;;;3.12;98.25
74594;BME280;63097;51.872;4.460;2023-03-15T07:36:42;101936.63;;;3.31;96.82
74594;BME280;63097;51.872;4.460;2023-03-15T07:39:07;101936.25;;;3.34;94.73
74594;BME280;63097;51.872;4.460;2023-03-15T07:41:33;101943.38;;;3.51;93.48
74594;BME280;63097;51.872;4.460;2023-03-15T07:43:58;101953.34;;;3.52;92.23
74594;BME280;63097;51.872;4.460;2023-03-15T07:46:23;101955.19;;;3.90;93.12
74594;BME280;63097;51.872;4.460;2023-03-15T07:48:48;101970.03;;;3.81;89.42
74594;BME280;63097;51.872;4.460;2023-03-15T07:51:14;101969.41;;;3.71;88.77
74594;BME280;63097;51.872;4.460;2023-03-15T07:53:39;101978.88;;;3.99;90.91
74594;BME280;63097;51.872;4.460;2023-03-15T07:56:05;101967.19;;;3.97;88.20
74594;BME280;63097;51.872;4.460;2023-03-15T07:58:30;101977.34;;;4.56;90.22
74594;BME280;63097;51.872;4.460;2023-03-15T08:00:56;101967.97;;;4.65;89.00
74594;BME280;63097;51.872;4.460;2023-03-15T08:03:23;101973.03;;;4.91;88.94
74594;BME280;63097;51.872;4.460;2023-03-15T08:05:49;101975.72;;;5.13;87.03
74594;BME280;63097;51.872;4.460;2023-03-15T08:08:15;101978.41;;;5.07;85.63
74594;BME280;63097;51.872;4.460;2023-03-15T08:10:40;101984.19;;;5.12;86.48
74594;BME280;63097;51.872;4.460;2023-03-15T08:13:06;101982.97;;;5.29;85.57
74594;BME280;63097;51.872;4.460;2023-03-15T08:15:31;101994.75;;;5.23;83.16
74594;BME280;63097;51.872;4.460;2023-03-15T08:17:56;101998.84;;;5.27;81.44
74594;BME280;63097;51.872;4.460;2023-03-15T08:20:22;102000.06;;;5.54;83.25
74594;BME280;63097;51.872;4.460;2023-03-15T08:22:48;102005.19;;;5.57;79.59
74594;BME280;63097;51.872;4.460;2023-03-15T08:25:16;102004.13;;;5.87;84.13
74594;BME280;63097;51.872;4.460;2023-03-15T08:27:42;102009.91;;;5.92;81.27
74594;BME280;63097;51.872;4.460;2023-03-15T08:30:12;102016.56;;;6.33;81.11
74594;BME280;63097;51.872;4.460;2023-03-15T08:32:39;102010.22;;;6.39;79.48
74594;BME280;63097;51.872;4.460;2023-03-15T08:35:06;101984.59;;;6.24;78.30
74594;BME280;63097;51.872;4.460;2023-03-15T08:37:31;102016.22;;;6.64;80.58
74594;BME280;63097;51.872;4.460;2023-03-15T08:39:57;102016.75;;;6.32;74.55
74594;BME280;63097;51.872;4.460;2023-03-15T08:42:22;102009.91;;;6.70;78.91
74594;BME280;63097;51.872;4.460;2023-03-15T08:44:48;102015.16;;;7.20;80.91
74594;BME280;63097;51.872;4.460;2023-03-15T08:47:13;102010.31;;;6.94;76.72
74594;BME280;63097;51.872;4.460;2023-03-15T08:49:38;102013.41;;;6.85;75.55
74594;BME280;63097;51.872;4.460;2023-03-15T08:52:04;102014.59;;;6.76;77.33
74594;BME280;63097;51.872;4.460;2023-03-15T08:54:29;102019.56;;;6.80;75.67
74594;BME280;63097;51.872;4.460;2023-03-15T08:56:54;102019.03;;;6.70;74.19
74594;BME280;63097;51.872;4.460;2023-03-15T08:59:20;102028.00;;;6.51;71.16
74594;BME280;63097;51.872;4.460;2023-03-15T09:01:45;102020.88;;;6.63;75.37
74594;BME280;63097;51.872;4.460;2023-03-15T09:04:10;102028.09;;;6.85;77.20
74594;BME280;63097;51.872;4.460;2023-03-15T09:06:36;102032.06;;;6.34;74.74
74594;BME280;63097;51.872;4.460;2023-03-15T09:09:01;102024.75;;;7.18;76.24
74594;BME280;63097;51.872;4.460;2023-03-15T09:11:27;102027.81;;;6.74;71.70
74594;BME280;63097;51.872;4.460;2023-03-15T09:13:52;102027.00;;;6.80;71.44
74594;BME280;63097;51.872;4.460;2023-03-15T09:16:17;102017.56;;;6.95;74.04
74594;BME280;63097;51.872;4.460;2023-03-15T09:18:43;102020.06;;;7.52;72.73
74594;BME280;63097;51.872;4.460;2023-03-15T09:21:09;102013.81;;;7.09;70.89
74594;BME280;63097;51.872;4.460;2023-03-15T09:23:34;102008.88;;;7.05;72.75
74594;BME280;63097;51.872;4.460;2023-03-15T09:26:00;102017.81;;;7.00;71.79
74594;BME280;63097;51.872;4.460;2023-03-15T09:28:25;102011.81;;;7.25;69.83
74594;BME280;63097;51.872;4.460;2023-03-15T09:30:51;102021.69;;;7.81;71.78
74594;BME280;63097;51.872;4.460;2023-03-15T09:33:16;102018.63;;;7.56;65.59
74594;BME280;63097;51.872;4.460;2023-03-15T09:35:41;102018.00;;;7.67;69.51
74594;BME280;63097;51.872;4.460;2023-03-15T09:38:07;102013.81;;;7.78;69.37
74594;BME280;63097;51.872;4.460;2023-03-15T09:40:37;102012.97;;;7.84;70.06
74594;BME280;63097;51.872;4.460;2023-03-15T09:43:33;102006.53;;;8.24;68.12
74594;BME280;63097;51.872;4.460;2023-03-15T09:48:48;102006.00;;;8.68;67.02
74594;BME280;63097;51.872;4.460;2023-03-15T09:51:32;102010.63;;;8.41;61.66
74594;BME280;63097;51.872;4.460;2023-03-15T09:54:14;102018.75;;;8.49;59.98
74594;BME280;63097;51.872;4.460;2023-03-15T09:56:55;102014.94;;;8.76;62.81
74594;BME280;63097;51.872;4.460;2023-03-15T09:59:25;102020.03;;;8.47;61.13
74594;BME280;63097;51.872;4.460;2023-03-15T10:01:54;102016.63;;;8.51;61.46
74594;BME280;63097;51.872;4.460;2023-03-15T10:04:28;102019.78;;;8.35;56.97
74594;BME280;63097;51.872;4.460;2023-03-15T10:06:56;102021.34;;;8.96;59.73
74594;BME280;63097;51.872;4.460;2023-03-15T10:09:24;102021.13;;;8.98;59.58
74594;BME280;63097;51.872;4.460;2023-03-15T10:12:19;102022.63;;;9.13;55.38
74594;BME280;63097;51.872;4.460;2023-03-15T10:20:25;102036.34;;;9.92;52.97
74594;BME280;63097;51.872;4.460;2023-03-15T10:22:56;102035.72;;;9.77;55.47
74594;BME280;63097;51.872;4.460;2023-03-15T10:25:30;102042.00;;;9.53;53.70
74594;BME280;63097;51.872;4.460;2023-03-15T10:28:27;102052.94;;;10.11;51.55
74594;BME280;63097;51.872;4.460;2023-03-15T10:30:57;102057.88;;;10.09;49.84
74594;BME280;63097;51.872;4.460;2023-03-15T10:33:31;102050.38;;;10.85;52.00
74594;BME280;63097;51.872;4.460;2023-03-15T10:35:59;102058.28;;;10.88;48.58
74594;BME280;63097;51.872;4.460;2023-03-15T10:38:25;102059.94;;;11.21;46.40
74594;BME280;63097;51.872;4.460;2023-03-15T10:40:53;102062.72;;;10.65;48.61
74594;BME280;63097;51.872;4.460;2023-03-15T10:43:29;102062.97;;;11.62;44.03
74594;BME280;63097;51.872;4.460;2023-03-15T10:46:13;102065.59;;;11.57;48.96
74594;BME280;63097;51.872;4.460;2023-03-15T10:48:58;102070.94;;;11.58;46.25
74594;BME280;63097;51.872;4.460;2023-03-15T10:51:31;102073.00;;;11.69;45.46
74594;BME280;63097;51.872;4.460;2023-03-15T10:56:57;102075.94;;;13.18;42.91
74594;BME280;63097;51.872;4.460;2023-03-15T10:59:25;102088.50;;;12.38;43.47
74594;BME280;63097;51.872;4.460;2023-03-15T11:01:53;102083.59;;;12.33;37.66
74594;BME280;63097;51.872;4.460;2023-03-15T11:04:31;102099.03;;;12.83;41.84
74594;BME280;63097;51.872;4.460;2023-03-15T11:09:23;102108.25;;;13.13;43.17
74594;BME280;63097;51.872;4.460;2023-03-15T11:11:59;102104.97;;;12.87;39.45
74594;BME280;63097;51.872;4.460;2023-03-15T11:14:40;102113.53;;;12.44;42.85
74594;BME280;63097;51.872;4.460;2023-03-15T11:17:11;102102.97;;;13.70;39.90
74594;BME280;63097;51.872;4.460;2023-03-15T11:19:40;102100.75;;;13.37;37.83
74594;BME280;63097;51.872;4.460;2023-03-15T11:22:11;102108.88;;;12.38;39.78
74594;BME280;63097;51.872;4.460;2023-03-15T11:24:38;102091.59;;;12.77;38.46
74594;BME280;63097;51.872;4.460;2023-03-15T11:27:11;102092.13;;;12.97;41.59
74594;BME280;63097;51.872;4.460;2023-03-15T11:29:39;102092.44;;;14.46;39.31
74594;BME280;63097;51.872;4.460;2023-03-15T11:32:19;102094.09;;;14.87;35.31
74594;BME280;63097;51.872;4.460;2023-03-15T11:34:59;102089.91;;;15.18;36.57
74594;BME280;63097;51.872;4.460;2023-03-15T11:37:41;102094.31;;;13.83;39.76
74594;BME280;63097;51.872;4.460;2023-03-15T11:40:16;102076.34;;;13.33;40.25
74594;BME280;63097;51.872;4.460;2023-03-15T11:42:56;102082.78;;;13.91;37.48
74594;BME280;63097;51.872;4.460;2023-03-15T11:48:02;102084.00;;;13.26;35.55
74594;BME280;63097;51.872;4.460;2023-03-15T11:50:30;102087.31;;;13.04;38.85
74594;BME280;63097;51.872;4.460;2023-03-15T11:52:56;102082.31;;;13.48;33.54
74594;BME280;63097;51.872;4.460;2023-03-15T11:55:26;102095.03;;;14.25;32.16
74594;BME280;63097;51.872;4.460;2023-03-15T11:57:52;102082.16;;;12.60;37.62
74594;BME280;63097;51.872;4.460;2023-03-15T12:02:58;102088.44;;;14.31;37.54
74594;BME280;63097;51.872;4.460;2023-03-15T12:05:50;102090.94;;;14.55;36.27
74594;BME280;63097;51.872;4.460;2023-03-15T12:08:20;102083.34;;;14.95;36.64
74594;BME280;63097;51.872;4.460;2023-03-15T12:10:47;102076.34;;;13.33;40.22
74594;BME280;63097;51.872;4.460;2023-03-15T12:13:19;102082.31;;;13.59;40.50
74594;BME280;63097;51.872;4.460;2023-03-15T12:15:46;102090.88;;;14.95;36.38
74594;BME280;63097;51.872;4.460;2023-03-15T12:18:20;102090.28;;;15.54;33.86
74594;BME280;63097;51.872;4.460;2023-03-15T12:20:51;102108.06;;;13.61;37.11
74594;BME280;63097;51.872;4.460;2023-03-15T12:23:29;102097.28;;;13.53;38.25
74594;BME280;63097;51.872;4.460;2023-03-15T12:25:58;102090.88;;;14.15;38.71
74594;BME280;63097;51.872;4.460;2023-03-15T12:28:34;102091.13;;;14.26;37.14
74594;BME280;63097;51.872;4.460;2023-03-15T12:31:02;102097.22;;;15.35;36.50
74594;BME280;63097;51.872;4.460;2023-03-15T12:33:30;102096.41;;;14.90;36.45
74594;BME280;63097;51.872;4.460;2023-03-15T12:36:01;102088.06;;;14.95;36.68
74594;BME280;63097;51.872;4.460;2023-03-15T12:38:34;102097.91;;;14.81;34.86
74594;BME280;63097;51.872;4.460;2023-03-15T12:41:06;102090.13;;;14.43;35.20
74594;BME280;63097;51.872;4.460;2023-03-15T12:43:44;102092.31;;;15.59;32.54
74594;BME280;63097;51.872;4.460;2023-03-15T12:49:10;102083.63;;;14.54;32.66
74594;BME280;63097;51.872;4.460;2023-03-15T12:51:57;102076.63;;;15.13;30.68
74594;BME280;63097;51.872;4.460;2023-03-15T12:54:24;102072.09;;;15.57;32.77
74594;BME280;63097;51.872;4.460;2023-03-15T12:56:54;102080.16;;;14.24;35.13
74594;BME280;63097;51.872;4.460;2023-03-15T13:01:47;102066.94;;;14.08;35.76
74594;BME280;63097;51.872;4.460;2023-03-15T13:04:12;102056.72;;;14.13;38.18
74594;BME280;63097;51.872;4.460;2023-03-15T13:07:10;102067.47;;;15.18;30.83
74594;BME280;63097;51.872;4.460;2023-03-15T13:09:58;102056.91;;;13.84;31.61
74594;BME280;63097;51.872;4.460;2023-03-15T13:12:51;102063.44;;;13.32;33.42
74594;BME280;63097;51.872;4.460;2023-03-15T13:18:13;102073.88;;;14.57;34.03
74594;BME280;63097;51.872;4.460;2023-03-15T13:23:29;102072.75;;;14.18;33.24
74594;BME280;63097;51.872;4.460;2023-03-15T13:26:29;102074.75;;;14.57;34.25
74594;BME280;63097;51.872;4.460;2023-03-15T13:29:00;102081.91;;;13.90;36.65
74594;BME280;63097;51.872;4.460;2023-03-15T13:31:28;102084.09;;;14.00;35.76
74594;BME280;63097;51.872;4.460;2023-03-15T13:33:56;102086.94;;;13.77;37.15
74594;BME280;63097;51.872;4.460;2023-03-15T13:36:43;102082.84;;;14.31;36.75